La Victoria — XCAJ4 — position and weather

sailwx.info

Track history (hours):
 
Tides and Currents Weather Stations Pressure Air Temp Water Temp Dewpoint Dewpoint Depression Visibility Wind Speed Wind Dir Waves Ship Positions

La Victoria

Last reported at 2017-Nov-18 15:00 UTC. Time now 2017-Nov-18 15:39 UTC.
Position N 19°12' W 096°08'.

Length 15 m.

Type: Pilot. MMSI: 345030092.

Date/timePositionNaut miles runAvg speedWind from/ knotsBaromVisibWave heightAir tempDewpointWater temp
2017-Nov-18 15:00N 19°12' W 096°08'2 3.1
2017-Nov-18 14:30N 19°12' W 096°06'2 3.8
2017-Nov-18 14:00N 19°13' W 096°08'2 3.3
2017-Nov-18 13:30N 19°12' W 096°06'1 1.5
2017-Nov-18 13:00N 19°12' W 096°07'1 1.0
2017-Nov-18 12:28N 19°12' W 096°08'0 0.4
2017-Nov-18 12:00N 19°12' W 096°08'3 6.0
2017-Nov-18 11:26N 19°12' W 096°04'4 7.2
2017-Nov-18 10:56N 19°12' W 096°08'0 0.0
2017-Nov-18 10:26N 19°12' W 096°08'0 0.0
2017-Nov-18 09:56N 19°12' W 096°08'0 0.0
2017-Nov-18 09:23N 19°12' W 096°08'0 0.0
2017-Nov-18 08:59N 19°12' W 096°08'0 0.0
2017-Nov-18 08:29N 19°12' W 096°08'0 0.0
2017-Nov-18 07:59N 19°12' W 096°08'0 0.0
2017-Nov-18 07:29N 19°12' W 096°08'0 0.0
2017-Nov-18 06:56N 19°12' W 096°08'0 0.0
2017-Nov-18 06:29N 19°12' W 096°08'0 0.0
2017-Nov-18 05:56N 19°12' W 096°08'0 0.0
2017-Nov-18 05:29N 19°12' W 096°08'0 0.0
2017-Nov-18 04:59N 19°12' W 096°08'0 0.0
2017-Nov-18 04:29N 19°12' W 096°08'0 0.0
2017-Nov-18 03:59N 19°12' W 096°08'0 0.0
2017-Nov-18 03:26N 19°12' W 096°08'0 0.0
2017-Nov-18 02:56N 19°12' W 096°08'0 0.0
2017-Nov-18 02:29N 19°12' W 096°08'0 0.0
2017-Nov-18 01:59N 19°12' W 096°08'0 0.0
2017-Nov-18 01:29N 19°12' W 096°08'0 0.0
2017-Nov-18 00:59N 19°12' W 096°08'3 5.5
2017-Nov-18 00:24N 19°11' W 096°04'3 8.0
2017-Nov-18 00:00N 19°12' W 096°08'0 0.1
2017-Nov-17 23:29N 19°12' W 096°08'0 0.0
2017-Nov-17 22:59N 19°12' W 096°08'0 0.0
2017-Nov-17 22:29N 19°12' W 096°08'0 0.0
2017-Nov-17 21:59N 19°12' W 096°08'0 0.0
2017-Nov-17 21:25N 19°12' W 096°08'0 0.0
2017-Nov-17 20:59N 19°12' W 096°08'1 1.3
2017-Nov-17 20:30N 19°12' W 096°08'2 4.5
2017-Nov-17 20:00N 19°12' W 096°06'2 3.2
2017-Nov-17 19:28N 19°12' W 096°08'0 0.1
2017-Nov-17 18:59N 19°12' W 096°08'0 0.1
2017-Nov-17 18:30N 19°12' W 096°08'0 0.4
2017-Nov-17 17:55N 19°12' W 096°08'0 0.1
2017-Nov-17 17:26N 19°12' W 096°08'3 5.5
2017-Nov-17 16:54N 19°12' W 096°05'3 7.3
2017-Nov-17 16:30N 19°12' W 096°08'0 0.4
2017-Nov-17 15:52N 19°12' W 096°08'2 4.9
2017-Nov-17 15:27N 19°12' W 096°06'2 4.1
2017-Nov-17 15:00N 19°12' W 096°08'0 0.1
2017-Nov-17 14:29N 19°12' W 096°08'2 4.1
2017-Nov-17 14:00N 19°14' W 096°09'0 0.2
2017-Nov-17 13:30N 19°14' W 096°09'2 3.4
2017-Nov-17 12:55N 19°12' W 096°08'0 0.0
2017-Nov-17 12:28N 19°12' W 096°08'3 7.1
2017-Nov-17 11:59N 19°11' W 096°04'3 6.4
2017-Nov-17 11:27N 19°12' W 096°08'0 1.0
2017-Nov-17 11:00N 19°12' W 096°08'0 0.9
2017-Nov-17 10:30N 19°12' W 096°08'0 0.0
2017-Nov-17 10:00N 19°12' W 096°08'0 0.0
2017-Nov-17 09:30N 19°12' W 096°08'0 0.0
2017-Nov-17 09:00N 19°12' W 096°08'0 0.0
2017-Nov-17 08:27N 19°12' W 096°08'0 0.0
2017-Nov-17 08:00N 19°12' W 096°08'0 0.0
2017-Nov-17 07:30N 19°12' W 096°08'0 0.0
2017-Nov-17 06:54N 19°12' W 096°08'0 0.0
2017-Nov-17 06:30N 19°12' W 096°08'0 0.0
2017-Nov-17 06:00N 19°12' W 096°08'0 0.0
2017-Nov-17 05:30N 19°12' W 096°08'0 0.0
2017-Nov-17 05:00N 19°12' W 096°08'1 1.9
2017-Nov-17 04:30N 19°13' W 096°08'1 1.7
2017-Nov-17 03:57N 19°12' W 096°08'4 8.5
2017-Nov-17 03:30N 19°11' W 096°04'4 7.6
2017-Nov-17 03:00N 19°12' W 096°08'0 0.0
2017-Nov-17 02:15N 19°12' W 096°08'0 0.0
2017-Nov-17 02:00N 19°12' W 096°08'0 0.0
2017-Nov-17 01:27N 19°12' W 096°08'0 0.0
2017-Nov-17 01:00N 19°12' W 096°08'0 0.0
2017-Nov-17 00:30N 19°12' W 096°08'0 0.0
2017-Nov-16 23:57N 19°12' W 096°08'0 0.0
2017-Nov-16 23:27N 19°12' W 096°08'0 0.0
2017-Nov-16 22:42N 19°12' W 096°08'0 0.0
2017-Nov-16 21:45N 19°12' W 096°08'0 0.0
2017-Nov-16 21:21N 19°12' W 096°08'0 0.0
2017-Nov-16 20:03N 19°12' W 096°08'0 0.0
2017-Nov-16 19:45N 19°12' W 096°08'0 0.0
2017-Nov-16 19:09N 19°12' W 096°08'0 0.0
2017-Nov-16 18:42N 19°12' W 096°08'0 0.0
2017-Nov-16 18:27N 19°12' W 096°08'0 0.0
2017-Nov-16 18:00N 19°12' W 096°08'0 0.0
2017-Nov-16 17:21N 19°12' W 096°08'1 2.5
2017-Nov-16 16:59N 19°13' W 096°08'1 1.8
2017-Nov-16 16:28N 19°12' W 096°08'1 1.5
2017-Nov-16 15:59N 19°13' W 096°08'1 1.5
2017-Nov-16 15:30N 19°12' W 096°08'4 8.2
2017-Nov-16 14:59N 19°11' W 096°03'4 7.5
2017-Nov-16 14:25N 19°12' W 096°08'0 0.0
2017-Nov-16 13:58N 19°12' W 096°08'0 0.0
2017-Nov-16 13:28N 19°12' W 096°08'0 0.0
2017-Nov-16 12:58N 19°12' W 096°08'0 0.0
2017-Nov-16 12:28N 19°12' W 096°08'0 0.0
2017-Nov-16 11:46N 19°12' W 096°08'0 0.0
2017-Nov-16 11:28N 19°12' W 096°08'0 0.0
2017-Nov-16 10:58N 19°12' W 096°08'0 0.0
2017-Nov-16 10:28N 19°12' W 096°08'0 0.0
2017-Nov-16 09:55N 19°12' W 096°08'0 0.0
2017-Nov-16 09:25N 19°12' W 096°08'0 0.0
2017-Nov-16 08:58N 19°12' W 096°08'0 0.0
2017-Nov-16 08:25N 19°12' W 096°08'0 0.0
2017-Nov-16 07:58N 19°12' W 096°08'0 0.0
2017-Nov-16 07:28N 19°12' W 096°08'0 0.0
2017-Nov-16 06:58N 19°12' W 096°08'0 0.0
2017-Nov-16 06:28N 19°12' W 096°08'0 0.0
2017-Nov-16 05:58N 19°12' W 096°08'0 0.0
2017-Nov-16 05:22N 19°12' W 096°08'0 0.0
2017-Nov-16 04:58N 19°12' W 096°08'0 0.0
2017-Nov-16 04:28N 19°12' W 096°08'0 0.0
2017-Nov-16 03:58N 19°12' W 096°08'0 0.0
2017-Nov-16 03:28N 19°12' W 096°08'0 0.0
2017-Nov-16 02:58N 19°12' W 096°08'0 0.0
2017-Nov-16 02:28N 19°12' W 096°08'0 0.0
2017-Nov-16 01:58N 19°12' W 096°08'0 0.0
2017-Nov-16 01:28N 19°12' W 096°08'0 0.0
2017-Nov-16 00:58N 19°12' W 096°08'0 0.0
2017-Nov-16 00:28N 19°12' W 096°08'0 0.0
2017-Nov-15 23:58N 19°12' W 096°08'0 0.0
2017-Nov-15 23:28N 19°12' W 096°08'0 0.0
2017-Nov-15 22:58N 19°12' W 096°08'0 0.0
2017-Nov-15 22:28N 19°12' W 096°08'0 0.0
2017-Nov-15 21:52N 19°12' W 096°08'0 0.0
2017-Nov-15 21:25N 19°12' W 096°08'0 0.0
2017-Nov-15 20:58N 19°12' W 096°08'0 0.0
2017-Nov-15 20:28N 19°12' W 096°08'0 0.0
2017-Nov-15 19:52N 19°12' W 096°08'0 0.0
2017-Nov-15 19:28N 19°12' W 096°08'0 0.0
2017-Nov-15 18:58N 19°12' W 096°08'0 0.0
2017-Nov-15 18:28N 19°12' W 096°08'0 0.0
2017-Nov-15 17:58N 19°12' W 096°08'0 0.0
2017-Nov-15 17:28N 19°12' W 096°08'0 0.0
2017-Nov-15 16:58N 19°12' W 096°08'0 0.0
2017-Nov-15 16:25N 19°12' W 096°08'0 0.0
2017-Nov-15 15:58N 19°12' W 096°08'0 0.0
2017-Nov-15 15:28N 19°12' W 096°08'0 0.0
2017-Nov-15 14:55N 19°12' W 096°08'0 0.9
2017-Nov-15 14:29N 19°12' W 096°08'0 0.7
2017-Nov-15 13:58N 19°12' W 096°08'0 0.0
2017-Nov-15 13:31N 19°12' W 096°08'1 1.0
2017-Nov-15 12:59N 19°12' W 096°07'1 1.1
2017-Nov-15 12:29N 19°12' W 096°08'3 6.9
2017-Nov-15 12:00N 19°11' W 096°04'3 6.3
2017-Nov-15 11:29N 19°12' W 096°08'0 0.0
2017-Nov-15 10:59N 19°12' W 096°08'0 0.0
2017-Nov-15 10:29N 19°12' W 096°08'0 0.0
2017-Nov-15 09:59N 19°12' W 096°08'0 0.0
2017-Nov-15 09:29N 19°12' W 096°08'0 0.0
2017-Nov-15 08:59N 19°12' W 096°08'0 0.0
2017-Nov-15 08:29N 19°12' W 096°08'0 0.0
2017-Nov-15 07:59N 19°12' W 096°08'0 0.0
2017-Nov-15 07:29N 19°12' W 096°08'0 0.0
2017-Nov-15 06:59N 19°12' W 096°08'0 0.0
2017-Nov-15 06:29N 19°12' W 096°08'0 0.0
2017-Nov-15 05:59N 19°12' W 096°08'0 0.0
2017-Nov-15 05:29N 19°12' W 096°08'0 0.0
2017-Nov-15 04:59N 19°12' W 096°08'0 0.0
2017-Nov-15 04:26N 19°12' W 096°08'0 0.0
2017-Nov-15 03:50N 19°12' W 096°08'0 0.0
2017-Nov-15 03:29N 19°12' W 096°08'3 5.7
2017-Nov-15 03:00N 19°12' W 096°05'3 5.6
2017-Nov-15 02:30N 19°12' W 096°08'0 0.0
2017-Nov-15 02:00N 19°12' W 096°08'0 0.0
2017-Nov-15 01:28N 19°12' W 096°08'0 0.0
2017-Nov-15 00:59N 19°12' W 096°08'1 2.1
2017-Nov-15 00:28N 19°12' W 096°07'1 2.3
2017-Nov-15 00:00N 19°12' W 096°08'0 0.1
2017-Nov-14 23:25N 19°12' W 096°08'0 0.0
2017-Nov-14 22:55N 19°12' W 096°08'0 0.0
2017-Nov-14 22:25N 19°12' W 096°08'0 0.0
2017-Nov-14 21:58N 19°12' W 096°08'0 0.5
2017-Nov-14 21:25N 19°12' W 096°08'0 0.0
2017-Nov-14 20:55N 19°12' W 096°08'0 0.0
2017-Nov-14 20:25N 19°12' W 096°08'1 1.4
2017-Nov-14 19:59N 19°13' W 096°08'0 0.0
2017-Nov-14 19:30N 19°13' W 096°08'1 1.7
2017-Nov-14 18:59N 19°12' W 096°08'3 6.3
2017-Nov-14 18:30N 19°12' W 096°05'3 5.7
2017-Nov-14 17:58N 19°12' W 096°08'0 0.0
2017-Nov-14 15:26N 19°12' W 096°08'0 0.0
2017-Nov-14 14:59N 19°12' W 096°08'0 0.0
2017-Nov-14 14:29N 19°12' W 096°08'0 0.0
2017-Nov-14 13:59N 19°12' W 096°08'0 0.0
2017-Nov-14 13:29N 19°12' W 096°08'0 0.0
2017-Nov-14 12:59N 19°12' W 096°08'0 0.0
2017-Nov-14 12:29N 19°12' W 096°08'0 0.0
2017-Nov-14 11:59N 19°12' W 096°08'0 0.0
2017-Nov-14 11:29N 19°12' W 096°08'0 0.0
2017-Nov-14 10:59N 19°12' W 096°08'0 0.0
2017-Nov-14 10:26N 19°12' W 096°08'0 0.0
2017-Nov-14 09:50N 19°12' W 096°08'0 0.0
2017-Nov-14 09:29N 19°12' W 096°08'0 0.0
2017-Nov-14 08:59N 19°12' W 096°08'0 0.0
2017-Nov-14 08:29N 19°12' W 096°08'0 0.0
2017-Nov-14 07:59N 19°12' W 096°08'0 0.0
2017-Nov-14 07:29N 19°12' W 096°08'0 0.0
2017-Nov-14 06:59N 19°12' W 096°08'0 0.0
2017-Nov-14 06:29N 19°12' W 096°08'0 0.0
2017-Nov-14 05:59N 19°12' W 096°08'0 0.0
2017-Nov-14 05:29N 19°12' W 096°08'0 0.8
2017-Nov-14 05:00N 19°12' W 096°07'0 0.2
2017-Nov-14 04:30N 19°12' W 096°07'1 2.1
2017-Nov-14 04:00N 19°13' W 096°08'1 1.6
2017-Nov-14 03:29N 19°12' W 096°08'0 0.0
2017-Nov-14 02:59N 19°12' W 096°08'0 0.0
2017-Nov-14 02:29N 19°12' W 096°08'0 0.0
2017-Nov-14 01:59N 19°12' W 096°08'0 0.0
2017-Nov-14 01:29N 19°12' W 096°08'0 0.0
2017-Nov-14 00:59N 19°12' W 096°08'0 0.0
2017-Nov-14 00:26N 19°12' W 096°08'2 5.3
2017-Nov-14 00:00N 19°12' W 096°05'2 3.1
2017-Nov-13 23:30N 19°12' W 096°07'1 2.1
2017-Nov-13 22:59N 19°13' W 096°08'1 1.3
2017-Nov-13 22:29N 19°12' W 096°08'0 0.0
2017-Nov-13 21:59N 19°12' W 096°08'0 0.0
2017-Nov-13 02:00N 19°12' W 096°08'0 0.0
2017-Nov-13 01:30N 19°12' W 096°08'0 0.0
2017-Nov-13 01:00N 19°12' W 096°08'0 1.0
2017-Nov-13 00:31N 19°12' W 096°08'0 0.5
2017-Nov-12 23:55N 19°13' W 096°08'4 8.8
2017-Nov-12 23:30N 19°11' W 096°05'3 5.7
2017-Nov-12 22:58N 19°12' W 096°08'0 0.0
2017-Nov-12 22:28N 19°12' W 096°08'0 0.0
2017-Nov-12 21:58N 19°12' W 096°08'0 0.0
2017-Nov-12 21:28N 19°12' W 096°08'0 0.0
2017-Nov-12 20:52N 19°12' W 096°08'0 0.0
2017-Nov-12 20:25N 19°12' W 096°08'0 0.0
2017-Nov-12 19:58N 19°12' W 096°08'0 0.0
2017-Nov-12 19:28N 19°12' W 096°08'0 0.0
2017-Nov-12 18:58N 19°12' W 096°08'0 0.0
2017-Nov-12 18:29N 19°12' W 096°08'0 0.5
2017-Nov-12 17:58N 19°12' W 096°08'0 0.9
2017-Nov-12 17:28N 19°12' W 096°08'0 0.9
2017-Nov-12 16:56N 19°12' W 096°08'0 0.0
2017-Nov-12 16:20N 19°12' W 096°08'0 0.0
2017-Nov-12 15:57N 19°12' W 096°08'0 0.5
2017-Nov-12 15:23N 19°12' W 096°08'0 0.0
2017-Nov-12 14:59N 19°12' W 096°08'0 0.8
2017-Nov-12 14:30N 19°12' W 096°08'0 0.7
2017-Nov-12 13:59N 19°12' W 096°08'0 0.0
2017-Nov-12 13:26N 19°12' W 096°08'0 0.0
2017-Nov-12 13:00N 19°12' W 096°08'0 0.0
2017-Nov-12 12:30N 19°12' W 096°08'1 2.6
2017-Nov-12 12:00N 19°12' W 096°06'1 2.5
2017-Nov-12 11:30N 19°12' W 096°08'0 0.1
2017-Nov-12 11:00N 19°12' W 096°08'0 0.2
2017-Nov-12 10:29N 19°12' W 096°08'0 0.0
2017-Nov-12 09:56N 19°12' W 096°08'0 0.0
2017-Nov-12 09:29N 19°12' W 096°08'0 0.0
2017-Nov-12 08:59N 19°12' W 096°08'0 0.0
2017-Nov-12 08:29N 19°12' W 096°08'0 0.0
2017-Nov-12 07:59N 19°12' W 096°08'0 0.0
2017-Nov-12 07:23N 19°12' W 096°08'0 0.0
2017-Nov-12 06:59N 19°12' W 096°08'0 0.0
2017-Nov-12 06:29N 19°12' W 096°08'0 0.0
2017-Nov-12 05:59N 19°12' W 096°08'0 0.0
2017-Nov-12 05:29N 19°12' W 096°08'0 0.0
2017-Nov-12 04:53N 19°12' W 096°08'0 0.0
2017-Nov-12 04:29N 19°12' W 096°08'0 0.0
2017-Nov-12 03:53N 19°12' W 096°08'0 0.0
2017-Nov-12 03:23N 19°12' W 096°08'0 0.0
2017-Nov-12 02:59N 19°12' W 096°08'0 0.0
2017-Nov-12 02:29N 19°12' W 096°08'0 0.0
2017-Nov-12 01:56N 19°12' W 096°08'0 0.0
2017-Nov-12 01:29N 19°12' W 096°08'0 0.0
2017-Nov-12 00:59N 19°12' W 096°08'0 0.0
2017-Nov-12 00:29N 19°12' W 096°08'0 0.0
2017-Nov-11 23:56N 19°12' W 096°08'0 0.0
2017-Nov-11 23:29N 19°12' W 096°08'0 0.0
2017-Nov-11 22:56N 19°12' W 096°08'0 0.0
2017-Nov-11 22:23N 19°12' W 096°08'0 0.0
2017-Nov-11 21:59N 19°12' W 096°08'0 0.0
2017-Nov-11 21:29N 19°12' W 096°08'0 0.0
2017-Nov-11 20:56N 19°12' W 096°08'0 0.0
2017-Nov-11 20:29N 19°12' W 096°08'0 0.0
2017-Nov-11 19:59N 19°12' W 096°08'0 0.0
2017-Nov-11 19:29N 19°12' W 096°08'0 0.0
2017-Nov-11 18:56N 19°12' W 096°08'0 0.0
2017-Nov-11 18:29N 19°12' W 096°08'0 0.0
2017-Nov-11 17:59N 19°12' W 096°08'0 0.0
2017-Nov-11 17:29N 19°12' W 096°08'0 0.0
2017-Nov-11 16:56N 19°12' W 096°08'0 0.0
2017-Nov-11 16:23N 19°12' W 096°08'0 0.0
2017-Nov-11 15:56N 19°12' W 096°08'0 0.0
2017-Nov-11 15:29N 19°12' W 096°08'0 0.0
2017-Nov-11 14:56N 19°12' W 096°08'0 0.0
2017-Nov-11 14:29N 19°12' W 096°08'0 0.0
2017-Nov-11 13:59N 19°12' W 096°08'0 0.8
2017-Nov-11 13:28N 19°12' W 096°08'0 0.8
2017-Nov-11 12:58N 19°12' W 096°08'3 4.4
2017-Nov-11 12:20N 19°12' W 096°05'3 8.6
2017-Nov-11 12:00N 19°12' W 096°08'0 0.0
2017-Nov-11 11:30N 19°12' W 096°08'4 5.6
2017-Nov-11 10:48N 19°11' W 096°04'311.1
2017-Nov-11 10:30N 19°12' W 096°07'1 1.1
2017-Nov-11 09:58N 19°12' W 096°08'0 0.0
2017-Nov-11 09:28N 19°12' W 096°08'0 0.0
2017-Nov-11 08:58N 19°12' W 096°08'0 0.0
2017-Nov-11 08:28N 19°12' W 096°08'0 0.0
2017-Nov-11 07:58N 19°12' W 096°08'0 0.0
2017-Nov-11 07:28N 19°12' W 096°08'0 0.0
2017-Nov-11 06:58N 19°12' W 096°08'0 0.0
2017-Nov-11 06:28N 19°12' W 096°08'3 5.3
2017-Nov-11 05:51N 19°12' W 096°04'3 9.0
2017-Nov-11 05:30N 19°12' W 096°08'0 1.0
2017-Nov-11 05:00N 19°12' W 096°07'0 0.9
2017-Nov-11 04:28N 19°12' W 096°08'0 0.0
2017-Nov-11 03:58N 19°12' W 096°08'0 0.0
2017-Nov-11 03:28N 19°12' W 096°08'0 0.0
2017-Nov-11 02:55N 19°12' W 096°08'0 0.0
2017-Nov-11 02:28N 19°12' W 096°08'0 0.0
2017-Nov-11 01:58N 19°12' W 096°08'0 0.0
2017-Nov-11 01:28N 19°12' W 096°08'0 0.0
2017-Nov-11 00:58N 19°12' W 096°08'0 0.0
2017-Nov-11 00:19N 19°12' W 096°08'0 0.0
2017-Nov-10 23:55N 19°12' W 096°08'0 0.0
2017-Nov-10 23:28N 19°12' W 096°08'0 0.0
2017-Nov-10 22:58N 19°12' W 096°08'0 0.0
2017-Nov-10 22:28N 19°12' W 096°08'0 0.0
2017-Nov-10 22:00N 19°12' W 096°08'0 0.1
2017-Nov-10 21:30N 19°12' W 096°08'2 3.9
2017-Nov-10 20:56N 19°12' W 096°05'2 4.4
2017-Nov-10 20:25N 19°12' W 096°08'0 0.0
2017-Nov-10 19:58N 19°12' W 096°08'0 0.5
2017-Nov-10 19:29N 19°12' W 096°08'0 0.6
2017-Nov-10 19:00N 19°12' W 096°08'1 0.9
2017-Nov-10 18:24N 19°12' W 096°07'1 1.1
2017-Nov-10 17:55N 19°12' W 096°08'0 0.0
2017-Nov-10 17:28N 19°12' W 096°08'0 0.0
2017-Nov-10 16:58N 19°12' W 096°08'3 5.9
2017-Nov-10 16:23N 19°11' W 096°04'3 8.7
2017-Nov-10 16:00N 19°12' W 096°08'1 1.6
2017-Nov-10 15:30N 19°13' W 096°08'0 0.8
2017-Nov-10 15:00N 19°12' W 096°08'0 0.7
2017-Nov-10 14:24N 19°12' W 096°08'3 8.9
2017-Nov-10 14:00N 19°11' W 096°04'0 1.0
2017-Nov-10 13:30N 19°12' W 096°04'3 6.5
2017-Nov-10 12:58N 19°12' W 096°08'0 0.0
2017-Nov-10 12:28N 19°12' W 096°08'0 0.0
2017-Nov-10 11:58N 19°12' W 096°08'0 0.0
2017-Nov-10 11:28N 19°12' W 096°08'0 0.0
2017-Nov-10 10:58N 19°12' W 096°08'0 0.0
2017-Nov-10 10:25N 19°12' W 096°08'0 0.0
2017-Nov-10 09:58N 19°12' W 096°08'0 0.0
2017-Nov-10 09:28N 19°12' W 096°08'0 0.0
2017-Nov-10 08:58N 19°12' W 096°08'0 0.0
2017-Nov-10 08:28N 19°12' W 096°08'0 0.0
2017-Nov-10 07:58N 19°12' W 096°08'0 0.0
2017-Nov-10 07:28N 19°12' W 096°08'0 0.0
2017-Nov-10 06:58N 19°12' W 096°08'0 0.0
2017-Nov-10 06:28N 19°12' W 096°08'0 0.0
2017-Nov-10 05:58N 19°12' W 096°08'0 0.0
2017-Nov-10 05:28N 19°12' W 096°08'0 0.0
2017-Nov-10 04:58N 19°12' W 096°08'0 0.0
2017-Nov-10 04:28N 19°12' W 096°08'0 0.0
2017-Nov-10 03:55N 19°12' W 096°08'0 0.0
2017-Nov-10 03:25N 19°12' W 096°08'0 0.0
2017-Nov-10 02:58N 19°12' W 096°08'0 0.0
2017-Nov-10 02:28N 19°12' W 096°08'0 0.0
2017-Nov-10 01:58N 19°12' W 096°08'0 0.0
2017-Nov-10 01:28N 19°12' W 096°08'0 0.0
2017-Nov-10 00:58N 19°12' W 096°08'0 0.0
2017-Nov-10 00:25N 19°12' W 096°08'0 0.0
2017-Nov-09 23:58N 19°12' W 096°08'0 0.0
2017-Nov-09 23:28N 19°12' W 096°08'0 0.0
2017-Nov-09 22:58N 19°12' W 096°08'0 0.0
2017-Nov-09 22:25N 19°12' W 096°08'0 0.0
2017-Nov-09 21:58N 19°12' W 096°08'0 0.0
2017-Nov-09 21:25N 19°12' W 096°08'0 0.0
2017-Nov-09 20:58N 19°12' W 096°08'0 0.0
2017-Nov-09 20:28N 19°12' W 096°08'0 0.0
2017-Nov-09 19:58N 19°12' W 096°08'0 0.0
2017-Nov-09 19:28N 19°12' W 096°08'0 0.0
2017-Nov-09 18:46N 19°12' W 096°08'0 1.0
2017-Nov-09 18:30N 19°12' W 096°08'0 0.6
2017-Nov-09 18:00N 19°12' W 096°08'0 0.0
2017-Nov-09 17:30N 19°12' W 096°08'1 1.0
2017-Nov-09 16:58N 19°12' W 096°08'1 1.1
2017-Nov-09 16:29N 19°12' W 096°08'3 6.1
2017-Nov-09 15:59N 19°11' W 096°05'3 5.8
2017-Nov-09 15:28N 19°12' W 096°08'0 0.0
2017-Nov-09 14:58N 19°12' W 096°08'0 0.0
2017-Nov-09 14:25N 19°12' W 096°08'3 5.2
2017-Nov-09 13:53N 19°12' W 096°05'3 6.7
2017-Nov-09 13:28N 19°12' W 096°08'0 0.0
2017-Nov-09 13:00N 19°12' W 096°08'0 0.0
2017-Nov-09 12:30N 19°12' W 096°08'0 0.0
2017-Nov-09 12:00N 19°12' W 096°08'0 0.0
2017-Nov-09 11:30N 19°12' W 096°08'0 0.0
2017-Nov-09 11:00N 19°12' W 096°08'0 0.0
2017-Nov-09 10:27N 19°12' W 096°08'0 0.0
2017-Nov-09 10:00N 19°12' W 096°08'0 0.0
2017-Nov-09 09:30N 19°12' W 096°08'0 0.0
2017-Nov-09 09:00N 19°12' W 096°08'0 0.0
2017-Nov-09 08:30N 19°12' W 096°08'0 0.0
2017-Nov-09 08:00N 19°12' W 096°08'0 0.0
2017-Nov-09 07:30N 19°12' W 096°08'0 0.0
2017-Nov-09 07:00N 19°12' W 096°08'0 0.0
2017-Nov-09 06:30N 19°12' W 096°08'0 0.0
2017-Nov-09 06:00N 19°12' W 096°08'0 0.0
2017-Nov-09 05:27N 19°12' W 096°08'0 0.0
2017-Nov-09 05:00N 19°12' W 096°08'0 0.0
2017-Nov-09 04:30N 19°12' W 096°08'0 0.0
2017-Nov-09 04:00N 19°12' W 096°08'0 0.0
2017-Nov-09 03:30N 19°12' W 096°08'0 0.0
2017-Nov-09 02:57N 19°12' W 096°08'0 0.0
2017-Nov-09 02:27N 19°12' W 096°08'0 0.0
2017-Nov-09 01:57N 19°12' W 096°08'0 0.0
2017-Nov-09 01:27N 19°12' W 096°08'0 0.0
2017-Nov-09 01:00N 19°12' W 096°08'0 0.0
2017-Nov-09 00:24N 19°12' W 096°08'0 0.0
2017-Nov-09 00:00N 19°12' W 096°08'0 0.0
2017-Nov-08 23:30N 19°12' W 096°08'0 0.0
2017-Nov-08 23:00N 19°12' W 096°08'0 0.7
2017-Nov-08 22:30N 19°12' W 096°08'0 0.7
2017-Nov-08 22:00N 19°12' W 096°08'4 8.6
2017-Nov-08 21:29N 19°11' W 096°03'4 9.1
2017-Nov-08 21:00N 19°12' W 096°08'0 0.1
2017-Nov-08 20:22N 19°12' W 096°08'0 0.0
2017-Nov-08 19:52N 19°12' W 096°08'0 0.0
2017-Nov-08 19:28N 19°12' W 096°08'0 0.0
2017-Nov-08 18:58N 19°12' W 096°08'0 0.0
2017-Nov-08 18:28N 19°12' W 096°08'0 0.0
2017-Nov-08 17:55N 19°12' W 096°08'0 0.0
2017-Nov-08 17:28N 19°12' W 096°08'0 0.0
2017-Nov-08 16:58N 19°12' W 096°08'0 0.0
2017-Nov-08 16:25N 19°12' W 096°08'0 0.0
2017-Nov-08 15:58N 19°12' W 096°08'0 0.0
2017-Nov-08 15:28N 19°12' W 096°08'  
Track history (hours):
 
Tides and Currents Weather Stations Pressure Air Temp Water Temp Dewpoint Dewpoint Depression Visibility Wind Speed Wind Dir Waves Ship Positions

La Victoria

Last reported at 2017-Nov-18 15:00 UTC. Time now 2017-Nov-18 15:39 UTC.
Position N 19°12' W 096°08'.

Length 15 m.

Type: Pilot. MMSI: 345030092.

Date/timePositionNaut miles runAvg speedWind from/ knotsBaromVisibWave heightAir tempDewpointWater temp
2017-Nov-18 15:00N 19°12' W 096°08'2 3.1
2017-Nov-18 14:30N 19°12' W 096°06'2 3.8
2017-Nov-18 14:00N 19°13' W 096°08'2 3.3
2017-Nov-18 13:30N 19°12' W 096°06'1 1.5
2017-Nov-18 13:00N 19°12' W 096°07'1 1.0
2017-Nov-18 12:28N 19°12' W 096°08'0 0.4
2017-Nov-18 12:00N 19°12' W 096°08'3 6.0
2017-Nov-18 11:26N 19°12' W 096°04'4 7.2
2017-Nov-18 10:56N 19°12' W 096°08'0 0.0
2017-Nov-18 10:26N 19°12' W 096°08'0 0.0
2017-Nov-18 09:56N 19°12' W 096°08'0 0.0
2017-Nov-18 09:23N 19°12' W 096°08'0 0.0
2017-Nov-18 08:59N 19°12' W 096°08'0 0.0
2017-Nov-18 08:29N 19°12' W 096°08'0 0.0
2017-Nov-18 07:59N 19°12' W 096°08'0 0.0
2017-Nov-18 07:29N 19°12' W 096°08'0 0.0
2017-Nov-18 06:56N 19°12' W 096°08'0 0.0
2017-Nov-18 06:29N 19°12' W 096°08'0 0.0
2017-Nov-18 05:56N 19°12' W 096°08'0 0.0
2017-Nov-18 05:29N 19°12' W 096°08'0 0.0
2017-Nov-18 04:59N 19°12' W 096°08'0 0.0
2017-Nov-18 04:29N 19°12' W 096°08'0 0.0
2017-Nov-18 03:59N 19°12' W 096°08'0 0.0
2017-Nov-18 03:26N 19°12' W 096°08'0 0.0
2017-Nov-18 02:56N 19°12' W 096°08'0 0.0
2017-Nov-18 02:29N 19°12' W 096°08'0 0.0
2017-Nov-18 01:59N 19°12' W 096°08'0 0.0
2017-Nov-18 01:29N 19°12' W 096°08'0 0.0
2017-Nov-18 00:59N 19°12' W 096°08'3 5.5
2017-Nov-18 00:24N 19°11' W 096°04'3 8.0
2017-Nov-18 00:00N 19°12' W 096°08'0 0.1
2017-Nov-17 23:29N 19°12' W 096°08'0 0.0
2017-Nov-17 22:59N 19°12' W 096°08'0 0.0
2017-Nov-17 22:29N 19°12' W 096°08'0 0.0
2017-Nov-17 21:59N 19°12' W 096°08'0 0.0
2017-Nov-17 21:25N 19°12' W 096°08'0 0.0
2017-Nov-17 20:59N 19°12' W 096°08'1 1.3
2017-Nov-17 20:30N 19°12' W 096°08'2 4.5
2017-Nov-17 20:00N 19°12' W 096°06'2 3.2
2017-Nov-17 19:28N 19°12' W 096°08'0 0.1
2017-Nov-17 18:59N 19°12' W 096°08'0 0.1
2017-Nov-17 18:30N 19°12' W 096°08'0 0.4
2017-Nov-17 17:55N 19°12' W 096°08'0 0.1
2017-Nov-17 17:26N 19°12' W 096°08'3 5.5
2017-Nov-17 16:54N 19°12' W 096°05'3 7.3
2017-Nov-17 16:30N 19°12' W 096°08'0 0.4
2017-Nov-17 15:52N 19°12' W 096°08'2 4.9
2017-Nov-17 15:27N 19°12' W 096°06'2 4.1
2017-Nov-17 15:00N 19°12' W 096°08'0 0.1
2017-Nov-17 14:29N 19°12' W 096°08'2 4.1
2017-Nov-17 14:00N 19°14' W 096°09'0 0.2
2017-Nov-17 13:30N 19°14' W 096°09'2 3.4
2017-Nov-17 12:55N 19°12' W 096°08'0 0.0
2017-Nov-17 12:28N 19°12' W 096°08'3 7.1
2017-Nov-17 11:59N 19°11' W 096°04'3 6.4
2017-Nov-17 11:27N 19°12' W 096°08'0 1.0
2017-Nov-17 11:00N 19°12' W 096°08'0 0.9
2017-Nov-17 10:30N 19°12' W 096°08'0 0.0
2017-Nov-17 10:00N 19°12' W 096°08'0 0.0
2017-Nov-17 09:30N 19°12' W 096°08'0 0.0
2017-Nov-17 09:00N 19°12' W 096°08'0 0.0
2017-Nov-17 08:27N 19°12' W 096°08'0 0.0
2017-Nov-17 08:00N 19°12' W 096°08'0 0.0
2017-Nov-17 07:30N 19°12' W 096°08'0 0.0
2017-Nov-17 06:54N 19°12' W 096°08'0 0.0
2017-Nov-17 06:30N 19°12' W 096°08'0 0.0
2017-Nov-17 06:00N 19°12' W 096°08'0 0.0
2017-Nov-17 05:30N 19°12' W 096°08'0 0.0
2017-Nov-17 05:00N 19°12' W 096°08'1 1.9
2017-Nov-17 04:30N 19°13' W 096°08'1 1.7
2017-Nov-17 03:57N 19°12' W 096°08'4 8.5
2017-Nov-17 03:30N 19°11' W 096°04'4 7.6
2017-Nov-17 03:00N 19°12' W 096°08'0 0.0
2017-Nov-17 02:15N 19°12' W 096°08'0 0.0
2017-Nov-17 02:00N 19°12' W 096°08'0 0.0
2017-Nov-17 01:27N 19°12' W 096°08'0 0.0
2017-Nov-17 01:00N 19°12' W 096°08'0 0.0
2017-Nov-17 00:30N 19°12' W 096°08'0 0.0
2017-Nov-16 23:57N 19°12' W 096°08'0 0.0
2017-Nov-16 23:27N 19°12' W 096°08'0 0.0
2017-Nov-16 22:42N 19°12' W 096°08'0 0.0
2017-Nov-16 21:45N 19°12' W 096°08'0 0.0
2017-Nov-16 21:21N 19°12' W 096°08'0 0.0
2017-Nov-16 20:03N 19°12' W 096°08'0 0.0
2017-Nov-16 19:45N 19°12' W 096°08'0 0.0
2017-Nov-16 19:09N 19°12' W 096°08'0 0.0
2017-Nov-16 18:42N 19°12' W 096°08'0 0.0
2017-Nov-16 18:27N 19°12' W 096°08'0 0.0
2017-Nov-16 18:00N 19°12' W 096°08'0 0.0
2017-Nov-16 17:21N 19°12' W 096°08'1 2.5
2017-Nov-16 16:59N 19°13' W 096°08'1 1.8
2017-Nov-16 16:28N 19°12' W 096°08'1 1.5
2017-Nov-16 15:59N 19°13' W 096°08'1 1.5
2017-Nov-16 15:30N 19°12' W 096°08'4 8.2
2017-Nov-16 14:59N 19°11' W 096°03'4 7.5
2017-Nov-16 14:25N 19°12' W 096°08'0 0.0
2017-Nov-16 13:58N 19°12' W 096°08'0 0.0
2017-Nov-16 13:28N 19°12' W 096°08'0 0.0
2017-Nov-16 12:58N 19°12' W 096°08'0 0.0
2017-Nov-16 12:28N 19°12' W 096°08'0 0.0
2017-Nov-16 11:46N 19°12' W 096°08'0 0.0
2017-Nov-16 11:28N 19°12' W 096°08'0 0.0
2017-Nov-16 10:58N 19°12' W 096°08'0 0.0
2017-Nov-16 10:28N 19°12' W 096°08'0 0.0
2017-Nov-16 09:55N 19°12' W 096°08'0 0.0
2017-Nov-16 09:25N 19°12' W 096°08'0 0.0
2017-Nov-16 08:58N 19°12' W 096°08'0 0.0
2017-Nov-16 08:25N 19°12' W 096°08'0 0.0
2017-Nov-16 07:58N 19°12' W 096°08'0 0.0
2017-Nov-16 07:28N 19°12' W 096°08'0 0.0
2017-Nov-16 06:58N 19°12' W 096°08'0 0.0
2017-Nov-16 06:28N 19°12' W 096°08'0 0.0
2017-Nov-16 05:58N 19°12' W 096°08'0 0.0
2017-Nov-16 05:22N 19°12' W 096°08'0 0.0
2017-Nov-16 04:58N 19°12' W 096°08'0 0.0
2017-Nov-16 04:28N 19°12' W 096°08'0 0.0
2017-Nov-16 03:58N 19°12' W 096°08'0 0.0
2017-Nov-16 03:28N 19°12' W 096°08'0 0.0
2017-Nov-16 02:58N 19°12' W 096°08'0 0.0
2017-Nov-16 02:28N 19°12' W 096°08'0 0.0
2017-Nov-16 01:58N 19°12' W 096°08'0 0.0
2017-Nov-16 01:28N 19°12' W 096°08'0 0.0
2017-Nov-16 00:58N 19°12' W 096°08'0 0.0
2017-Nov-16 00:28N 19°12' W 096°08'0 0.0
2017-Nov-15 23:58N 19°12' W 096°08'0 0.0
2017-Nov-15 23:28N 19°12' W 096°08'0 0.0
2017-Nov-15 22:58N 19°12' W 096°08'0 0.0
2017-Nov-15 22:28N 19°12' W 096°08'0 0.0
2017-Nov-15 21:52N 19°12' W 096°08'0 0.0
2017-Nov-15 21:25N 19°12' W 096°08'0 0.0
2017-Nov-15 20:58N 19°12' W 096°08'0 0.0
2017-Nov-15 20:28N 19°12' W 096°08'0 0.0
2017-Nov-15 19:52N 19°12' W 096°08'0 0.0
2017-Nov-15 19:28N 19°12' W 096°08'0 0.0
2017-Nov-15 18:58N 19°12' W 096°08'0 0.0
2017-Nov-15 18:28N 19°12' W 096°08'0 0.0
2017-Nov-15 17:58N 19°12' W 096°08'0 0.0
2017-Nov-15 17:28N 19°12' W 096°08'0 0.0
2017-Nov-15 16:58N 19°12' W 096°08'0 0.0
2017-Nov-15 16:25N 19°12' W 096°08'0 0.0
2017-Nov-15 15:58N 19°12' W 096°08'0 0.0
2017-Nov-15 15:28N 19°12' W 096°08'0 0.0
2017-Nov-15 14:55N 19°12' W 096°08'0 0.9
2017-Nov-15 14:29N 19°12' W 096°08'0 0.7
2017-Nov-15 13:58N 19°12' W 096°08'0 0.0
2017-Nov-15 13:31N 19°12' W 096°08'1 1.0
2017-Nov-15 12:59N 19°12' W 096°07'1 1.1
2017-Nov-15 12:29N 19°12' W 096°08'3 6.9
2017-Nov-15 12:00N 19°11' W 096°04'3 6.3
2017-Nov-15 11:29N 19°12' W 096°08'0 0.0
2017-Nov-15 10:59N 19°12' W 096°08'0 0.0
2017-Nov-15 10:29N 19°12' W 096°08'0 0.0
2017-Nov-15 09:59N 19°12' W 096°08'0 0.0
2017-Nov-15 09:29N 19°12' W 096°08'0 0.0
2017-Nov-15 08:59N 19°12' W 096°08'0 0.0
2017-Nov-15 08:29N 19°12' W 096°08'0 0.0
2017-Nov-15 07:59N 19°12' W 096°08'0 0.0
2017-Nov-15 07:29N 19°12' W 096°08'0 0.0
2017-Nov-15 06:59N 19°12' W 096°08'0 0.0
2017-Nov-15 06:29N 19°12' W 096°08'0 0.0
2017-Nov-15 05:59N 19°12' W 096°08'0 0.0
2017-Nov-15 05:29N 19°12' W 096°08'0 0.0
2017-Nov-15 04:59N 19°12' W 096°08'0 0.0
2017-Nov-15 04:26N 19°12' W 096°08'0 0.0
2017-Nov-15 03:50N 19°12' W 096°08'0 0.0
2017-Nov-15 03:29N 19°12' W 096°08'3 5.7
2017-Nov-15 03:00N 19°12' W 096°05'3 5.6
2017-Nov-15 02:30N 19°12' W 096°08'0 0.0
2017-Nov-15 02:00N 19°12' W 096°08'0 0.0
2017-Nov-15 01:28N 19°12' W 096°08'0 0.0
2017-Nov-15 00:59N 19°12' W 096°08'1 2.1
2017-Nov-15 00:28N 19°12' W 096°07'1 2.3
2017-Nov-15 00:00N 19°12' W 096°08'0 0.1
2017-Nov-14 23:25N 19°12' W 096°08'0 0.0
2017-Nov-14 22:55N 19°12' W 096°08'0 0.0
2017-Nov-14 22:25N 19°12' W 096°08'0 0.0
2017-Nov-14 21:58N 19°12' W 096°08'0 0.5
2017-Nov-14 21:25N 19°12' W 096°08'0 0.0
2017-Nov-14 20:55N 19°12' W 096°08'0 0.0
2017-Nov-14 20:25N 19°12' W 096°08'1 1.4
2017-Nov-14 19:59N 19°13' W 096°08'0 0.0
2017-Nov-14 19:30N 19°13' W 096°08'1 1.7
2017-Nov-14 18:59N 19°12' W 096°08'3 6.3
2017-Nov-14 18:30N 19°12' W 096°05'3 5.7
2017-Nov-14 17:58N 19°12' W 096°08'0 0.0
2017-Nov-14 15:26N 19°12' W 096°08'0 0.0
2017-Nov-14 14:59N 19°12' W 096°08'0 0.0
2017-Nov-14 14:29N 19°12' W 096°08'0 0.0
2017-Nov-14 13:59N 19°12' W 096°08'0 0.0
2017-Nov-14 13:29N 19°12' W 096°08'0 0.0
2017-Nov-14 12:59N 19°12' W 096°08'0 0.0
2017-Nov-14 12:29N 19°12' W 096°08'0 0.0
2017-Nov-14 11:59N 19°12' W 096°08'0 0.0
2017-Nov-14 11:29N 19°12' W 096°08'0 0.0
2017-Nov-14 10:59N 19°12' W 096°08'0 0.0
2017-Nov-14 10:26N 19°12' W 096°08'0 0.0
2017-Nov-14 09:50N 19°12' W 096°08'0 0.0
2017-Nov-14 09:29N 19°12' W 096°08'0 0.0
2017-Nov-14 08:59N 19°12' W 096°08'0 0.0
2017-Nov-14 08:29N 19°12' W 096°08'0 0.0
2017-Nov-14 07:59N 19°12' W 096°08'0 0.0
2017-Nov-14 07:29N 19°12' W 096°08'0 0.0
2017-Nov-14 06:59N 19°12' W 096°08'0 0.0
2017-Nov-14 06:29N 19°12' W 096°08'0 0.0
2017-Nov-14 05:59N 19°12' W 096°08'0 0.0
2017-Nov-14 05:29N 19°12' W 096°08'0 0.8
2017-Nov-14 05:00N 19°12' W 096°07'0 0.2
2017-Nov-14 04:30N 19°12' W 096°07'1 2.1
2017-Nov-14 04:00N 19°13' W 096°08'1 1.6
2017-Nov-14 03:29N 19°12' W 096°08'0 0.0
2017-Nov-14 02:59N 19°12' W 096°08'0 0.0
2017-Nov-14 02:29N 19°12' W 096°08'0 0.0
2017-Nov-14 01:59N 19°12' W 096°08'0 0.0
2017-Nov-14 01:29N 19°12' W 096°08'0 0.0
2017-Nov-14 00:59N 19°12' W 096°08'0 0.0
2017-Nov-14 00:26N 19°12' W 096°08'2 5.3
2017-Nov-14 00:00N 19°12' W 096°05'2 3.1
2017-Nov-13 23:30N 19°12' W 096°07'1 2.1
2017-Nov-13 22:59N 19°13' W 096°08'1 1.3
2017-Nov-13 22:29N 19°12' W 096°08'0 0.0
2017-Nov-13 21:59N 19°12' W 096°08'0 0.0
2017-Nov-13 02:00N 19°12' W 096°08'0 0.0
2017-Nov-13 01:30N 19°12' W 096°08'0 0.0
2017-Nov-13 01:00N 19°12' W 096°08'0 1.0
2017-Nov-13 00:31N 19°12' W 096°08'0 0.5
2017-Nov-12 23:55N 19°13' W 096°08'4 8.8
2017-Nov-12 23:30N 19°11' W 096°05'3 5.7
2017-Nov-12 22:58N 19°12' W 096°08'0 0.0
2017-Nov-12 22:28N 19°12' W 096°08'0 0.0
2017-Nov-12 21:58N 19°12' W 096°08'0 0.0
2017-Nov-12 21:28N 19°12' W 096°08'0 0.0
2017-Nov-12 20:52N 19°12' W 096°08'0 0.0
2017-Nov-12 20:25N 19°12' W 096°08'0 0.0
2017-Nov-12 19:58N 19°12' W 096°08'0 0.0
2017-Nov-12 19:28N 19°12' W 096°08'0 0.0
2017-Nov-12 18:58N 19°12' W 096°08'0 0.0
2017-Nov-12 18:29N 19°12' W 096°08'0 0.5
2017-Nov-12 17:58N 19°12' W 096°08'0 0.9
2017-Nov-12 17:28N 19°12' W 096°08'0 0.9
2017-Nov-12 16:56N 19°12' W 096°08'0 0.0
2017-Nov-12 16:20N 19°12' W 096°08'0 0.0
2017-Nov-12 15:57N 19°12' W 096°08'0 0.5
2017-Nov-12 15:23N 19°12' W 096°08'0 0.0
2017-Nov-12 14:59N 19°12' W 096°08'0 0.8
2017-Nov-12 14:30N 19°12' W 096°08'0 0.7
2017-Nov-12 13:59N 19°12' W 096°08'0 0.0
2017-Nov-12 13:26N 19°12' W 096°08'0 0.0
2017-Nov-12 13:00N 19°12' W 096°08'0 0.0
2017-Nov-12 12:30N 19°12' W 096°08'1 2.6
2017-Nov-12 12:00N 19°12' W 096°06'1 2.5
2017-Nov-12 11:30N 19°12' W 096°08'0 0.1
2017-Nov-12 11:00N 19°12' W 096°08'0 0.2
2017-Nov-12 10:29N 19°12' W 096°08'0 0.0
2017-Nov-12 09:56N 19°12' W 096°08'0 0.0
2017-Nov-12 09:29N 19°12' W 096°08'0 0.0
2017-Nov-12 08:59N 19°12' W 096°08'0 0.0
2017-Nov-12 08:29N 19°12' W 096°08'0 0.0
2017-Nov-12 07:59N 19°12' W 096°08'0 0.0
2017-Nov-12 07:23N 19°12' W 096°08'0 0.0
2017-Nov-12 06:59N 19°12' W 096°08'0 0.0
2017-Nov-12 06:29N 19°12' W 096°08'0 0.0
2017-Nov-12 05:59N 19°12' W 096°08'0 0.0
2017-Nov-12 05:29N 19°12' W 096°08'0 0.0
2017-Nov-12 04:53N 19°12' W 096°08'0 0.0
2017-Nov-12 04:29N 19°12' W 096°08'0 0.0
2017-Nov-12 03:53N 19°12' W 096°08'0 0.0
2017-Nov-12 03:23N 19°12' W 096°08'0 0.0
2017-Nov-12 02:59N 19°12' W 096°08'0 0.0
2017-Nov-12 02:29N 19°12' W 096°08'0 0.0
2017-Nov-12 01:56N 19°12' W 096°08'0 0.0
2017-Nov-12 01:29N 19°12' W 096°08'0 0.0
2017-Nov-12 00:59N 19°12' W 096°08'0 0.0
2017-Nov-12 00:29N 19°12' W 096°08'0 0.0
2017-Nov-11 23:56N 19°12' W 096°08'0 0.0
2017-Nov-11 23:29N 19°12' W 096°08'0 0.0
2017-Nov-11 22:56N 19°12' W 096°08'0 0.0
2017-Nov-11 22:23N 19°12' W 096°08'0 0.0
2017-Nov-11 21:59N 19°12' W 096°08'0 0.0
2017-Nov-11 21:29N 19°12' W 096°08'0 0.0
2017-Nov-11 20:56N 19°12' W 096°08'0 0.0
2017-Nov-11 20:29N 19°12' W 096°08'0 0.0
2017-Nov-11 19:59N 19°12' W 096°08'0 0.0
2017-Nov-11 19:29N 19°12' W 096°08'0 0.0
2017-Nov-11 18:56N 19°12' W 096°08'0 0.0
2017-Nov-11 18:29N 19°12' W 096°08'0 0.0
2017-Nov-11 17:59N 19°12' W 096°08'0 0.0
2017-Nov-11 17:29N 19°12' W 096°08'0 0.0
2017-Nov-11 16:56N 19°12' W 096°08'0 0.0
2017-Nov-11 16:23N 19°12' W 096°08'0 0.0
2017-Nov-11 15:56N 19°12' W 096°08'0 0.0
2017-Nov-11 15:29N 19°12' W 096°08'0 0.0
2017-Nov-11 14:56N 19°12' W 096°08'0 0.0
2017-Nov-11 14:29N 19°12' W 096°08'0 0.0
2017-Nov-11 13:59N 19°12' W 096°08'0 0.8
2017-Nov-11 13:28N 19°12' W 096°08'0 0.8
2017-Nov-11 12:58N 19°12' W 096°08'3 4.4
2017-Nov-11 12:20N 19°12' W 096°05'3 8.6
2017-Nov-11 12:00N 19°12' W 096°08'0 0.0
2017-Nov-11 11:30N 19°12' W 096°08'4 5.6
2017-Nov-11 10:48N 19°11' W 096°04'311.1
2017-Nov-11 10:30N 19°12' W 096°07'1 1.1
2017-Nov-11 09:58N 19°12' W 096°08'0 0.0
2017-Nov-11 09:28N 19°12' W 096°08'0 0.0
2017-Nov-11 08:58N 19°12' W 096°08'0 0.0
2017-Nov-11 08:28N 19°12' W 096°08'0 0.0
2017-Nov-11 07:58N 19°12' W 096°08'0 0.0
2017-Nov-11 07:28N 19°12' W 096°08'0 0.0
2017-Nov-11 06:58N 19°12' W 096°08'0 0.0
2017-Nov-11 06:28N 19°12' W 096°08'3 5.3
2017-Nov-11 05:51N 19°12' W 096°04'3 9.0
2017-Nov-11 05:30N 19°12' W 096°08'0 1.0
2017-Nov-11 05:00N 19°12' W 096°07'0 0.9
2017-Nov-11 04:28N 19°12' W 096°08'0 0.0
2017-Nov-11 03:58N 19°12' W 096°08'0 0.0
2017-Nov-11 03:28N 19°12' W 096°08'0 0.0
2017-Nov-11 02:55N 19°12' W 096°08'0 0.0
2017-Nov-11 02:28N 19°12' W 096°08'0 0.0
2017-Nov-11 01:58N 19°12' W 096°08'0 0.0
2017-Nov-11 01:28N 19°12' W 096°08'0 0.0
2017-Nov-11 00:58N 19°12' W 096°08'0 0.0
2017-Nov-11 00:19N 19°12' W 096°08'0 0.0
2017-Nov-10 23:55N 19°12' W 096°08'0 0.0
2017-Nov-10 23:28N 19°12' W 096°08'0 0.0
2017-Nov-10 22:58N 19°12' W 096°08'0 0.0
2017-Nov-10 22:28N 19°12' W 096°08'0 0.0
2017-Nov-10 22:00N 19°12' W 096°08'0 0.1
2017-Nov-10 21:30N 19°12' W 096°08'2 3.9
2017-Nov-10 20:56N 19°12' W 096°05'2 4.4
2017-Nov-10 20:25N 19°12' W 096°08'0 0.0
2017-Nov-10 19:58N 19°12' W 096°08'0 0.5
2017-Nov-10 19:29N 19°12' W 096°08'0 0.6
2017-Nov-10 19:00N 19°12' W 096°08'1 0.9
2017-Nov-10 18:24N 19°12' W 096°07'1 1.1
2017-Nov-10 17:55N 19°12' W 096°08'0 0.0
2017-Nov-10 17:28N 19°12' W 096°08'0 0.0
2017-Nov-10 16:58N 19°12' W 096°08'3 5.9
2017-Nov-10 16:23N 19°11' W 096°04'3 8.7
2017-Nov-10 16:00N 19°12' W 096°08'1 1.6
2017-Nov-10 15:30N 19°13' W 096°08'0 0.8
2017-Nov-10 15:00N 19°12' W 096°08'0 0.7
2017-Nov-10 14:24N 19°12' W 096°08'3 8.9
2017-Nov-10 14:00N 19°11' W 096°04'0 1.0
2017-Nov-10 13:30N 19°12' W 096°04'3 6.5
2017-Nov-10 12:58N 19°12' W 096°08'0 0.0
2017-Nov-10 12:28N 19°12' W 096°08'0 0.0
2017-Nov-10 11:58N 19°12' W 096°08'0 0.0
2017-Nov-10 11:28N 19°12' W 096°08'0 0.0
2017-Nov-10 10:58N 19°12' W 096°08'0 0.0
2017-Nov-10 10:25N 19°12' W 096°08'0 0.0
2017-Nov-10 09:58N 19°12' W 096°08'0 0.0
2017-Nov-10 09:28N 19°12' W 096°08'0 0.0
2017-Nov-10 08:58N 19°12' W 096°08'0 0.0
2017-Nov-10 08:28N 19°12' W 096°08'0 0.0
2017-Nov-10 07:58N 19°12' W 096°08'0 0.0
2017-Nov-10 07:28N 19°12' W 096°08'0 0.0
2017-Nov-10 06:58N 19°12' W 096°08'0 0.0
2017-Nov-10 06:28N 19°12' W 096°08'0 0.0
2017-Nov-10 05:58N 19°12' W 096°08'0 0.0
2017-Nov-10 05:28N 19°12' W 096°08'0 0.0
2017-Nov-10 04:58N 19°12' W 096°08'0 0.0
2017-Nov-10 04:28N 19°12' W 096°08'0 0.0
2017-Nov-10 03:55N 19°12' W 096°08'0 0.0
2017-Nov-10 03:25N 19°12' W 096°08'0 0.0
2017-Nov-10 02:58N 19°12' W 096°08'0 0.0
2017-Nov-10 02:28N 19°12' W 096°08'0 0.0
2017-Nov-10 01:58N 19°12' W 096°08'0 0.0
2017-Nov-10 01:28N 19°12' W 096°08'0 0.0
2017-Nov-10 00:58N 19°12' W 096°08'0 0.0
2017-Nov-10 00:25N 19°12' W 096°08'0 0.0
2017-Nov-09 23:58N 19°12' W 096°08'0 0.0
2017-Nov-09 23:28N 19°12' W 096°08'0 0.0
2017-Nov-09 22:58N 19°12' W 096°08'0 0.0
2017-Nov-09 22:25N 19°12' W 096°08'0 0.0
2017-Nov-09 21:58N 19°12' W 096°08'0 0.0
2017-Nov-09 21:25N 19°12' W 096°08'0 0.0
2017-Nov-09 20:58N 19°12' W 096°08'0 0.0
2017-Nov-09 20:28N 19°12' W 096°08'0 0.0
2017-Nov-09 19:58N 19°12' W 096°08'0 0.0
2017-Nov-09 19:28N 19°12' W 096°08'0 0.0
2017-Nov-09 18:46N 19°12' W 096°08'0 1.0
2017-Nov-09 18:30N 19°12' W 096°08'0 0.6
2017-Nov-09 18:00N 19°12' W 096°08'0 0.0
2017-Nov-09 17:30N 19°12' W 096°08'1 1.0
2017-Nov-09 16:58N 19°12' W 096°08'1 1.1
2017-Nov-09 16:29N 19°12' W 096°08'3 6.1
2017-Nov-09 15:59N 19°11' W 096°05'3 5.8
2017-Nov-09 15:28N 19°12' W 096°08'0 0.0
2017-Nov-09 14:58N 19°12' W 096°08'0 0.0
2017-Nov-09 14:25N 19°12' W 096°08'3 5.2
2017-Nov-09 13:53N 19°12' W 096°05'3 6.7
2017-Nov-09 13:28N 19°12' W 096°08'0 0.0
2017-Nov-09 13:00N 19°12' W 096°08'0 0.0
2017-Nov-09 12:30N 19°12' W 096°08'0 0.0
2017-Nov-09 12:00N 19°12' W 096°08'0 0.0
2017-Nov-09 11:30N 19°12' W 096°08'0 0.0
2017-Nov-09 11:00N 19°12' W 096°08'0 0.0
2017-Nov-09 10:27N 19°12' W 096°08'0 0.0
2017-Nov-09 10:00N 19°12' W 096°08'0 0.0
2017-Nov-09 09:30N 19°12' W 096°08'0 0.0
2017-Nov-09 09:00N 19°12' W 096°08'0 0.0
2017-Nov-09 08:30N 19°12' W 096°08'0 0.0
2017-Nov-09 08:00N 19°12' W 096°08'0 0.0
2017-Nov-09 07:30N 19°12' W 096°08'0 0.0
2017-Nov-09 07:00N 19°12' W 096°08'0 0.0
2017-Nov-09 06:30N 19°12' W 096°08'0 0.0
2017-Nov-09 06:00N 19°12' W 096°08'0 0.0
2017-Nov-09 05:27N 19°12' W 096°08'0 0.0
2017-Nov-09 05:00N 19°12' W 096°08'0 0.0
2017-Nov-09 04:30N 19°12' W 096°08'0 0.0
2017-Nov-09 04:00N 19°12' W 096°08'0 0.0
2017-Nov-09 03:30N 19°12' W 096°08'0 0.0
2017-Nov-09 02:57N 19°12' W 096°08'0 0.0
2017-Nov-09 02:27N 19°12' W 096°08'0 0.0
2017-Nov-09 01:57N 19°12' W 096°08'0 0.0
2017-Nov-09 01:27N 19°12' W 096°08'0 0.0
2017-Nov-09 01:00N 19°12' W 096°08'0 0.0
2017-Nov-09 00:24N 19°12' W 096°08'0 0.0
2017-Nov-09 00:00N 19°12' W 096°08'0 0.0
2017-Nov-08 23:30N 19°12' W 096°08'0 0.0
2017-Nov-08 23:00N 19°12' W 096°08'0 0.7
2017-Nov-08 22:30N 19°12' W 096°08'0 0.7
2017-Nov-08 22:00N 19°12' W 096°08'4 8.6
2017-Nov-08 21:29N 19°11' W 096°03'4 9.1
2017-Nov-08 21:00N 19°12' W 096°08'0 0.1
2017-Nov-08 20:22N 19°12' W 096°08'0 0.0
2017-Nov-08 19:52N 19°12' W 096°08'0 0.0
2017-Nov-08 19:28N 19°12' W 096°08'0 0.0
2017-Nov-08 18:58N 19°12' W 096°08'0 0.0
2017-Nov-08 18:28N 19°12' W 096°08'0 0.0
2017-Nov-08 17:55N 19°12' W 096°08'0 0.0
2017-Nov-08 17:28N 19°12' W 096°08'0 0.0
2017-Nov-08 16:58N 19°12' W 096°08'0 0.0
2017-Nov-08 16:25N 19°12' W 096°08'0 0.0
2017-Nov-08 15:58N 19°12' W 096°08'0 0.0
2017-Nov-08 15:28N 19°12' W 096°08'  

Dump ship's entire track history